»·PEaware :: SWA176 KCOS-KLAS

SWA176 :: KCOS-KLAS

FLIGHT INFORMATION

Flight Status: Arrived
Operator:
Southwest Airlines
More flights by this operator :: More flights under this callsign
Pilot: Steve F. (26981)
Aircraft: BOEING 737-800
(B738)
More flights by this aircraft type
Origin: KCOS City Of Colorado Springs Mun
United States
Destination: KLAS Harry Reid Intl
United States
More flights between these airports :: More routes between these airports
Route: COS6 BRK V83 PUB J28 KANON DVC TYEGR CHOWW1
File this flight plan on PilotEdge
Remarks:
Altitude:
(Current/Filed)
34,000ft
Speed:
(Current/Filed)
430kts
Departed: 04-Jan-22 11:00 AM
Arrived: 04-Jan-22 12:33 PM
Distance/Time
Traveled:
523nm/1:32
Distance/Time
To Go:
Arrived

Flight Plot

Page will automatically refresh every two minutes.

Flight plan parsing failed; only flown route is shown


Map Options




Map Legend


Flown Route
Filed Route
Departure Airport
Arrival Airport
Navaid (VOR, NDB)
Fix

Horizontal Profiles

Position Reports

Time Latitude Longitude Heading Altitude Ground
Speed
04-Jan-22 10:29 38.799911 -104.700823 179 6195ft 0kts
04-Jan-22 10:30 38.799911 -104.700823 179 6195ft 0kts
04-Jan-22 10:31 38.799911 -104.700823 179 6195ft 0kts
04-Jan-22 10:32 38.799911 -104.700823 179 6195ft 0kts
04-Jan-22 10:33 38.799911 -104.700823 179 6195ft 0kts
04-Jan-22 10:34 38.799911 -104.700823 179 6195ft 0kts
04-Jan-22 10:35 38.799911 -104.700823 179 6195ft 0kts
04-Jan-22 10:36 38.799911 -104.700823 179 6195ft 0kts
04-Jan-22 10:37 38.799911 -104.700823 179 6195ft 0kts
04-Jan-22 10:38 38.799911 -104.700823 179 6195ft 0kts
04-Jan-22 10:39 38.799911 -104.700823 179 6195ft 0kts
04-Jan-22 10:40 38.799911 -104.700823 179 6195ft 0kts
04-Jan-22 10:41 38.799911 -104.700823 179 6195ft 0kts
04-Jan-22 10:42 38.799911 -104.700823 179 6195ft 0kts
04-Jan-22 10:43 38.799911 -104.700823 179 6195ft 0kts
04-Jan-22 10:44 38.799911 -104.700823 179 6195ft 0kts
04-Jan-22 10:45 38.799911 -104.700823 179 6195ft 0kts
04-Jan-22 10:46 38.799911 -104.700823 179 6195ft 0kts
04-Jan-22 10:47 38.800321 -104.700823 180 6195ft 2kts
04-Jan-22 10:48 38.800613 -104.700755 74 6195ft 2kts
04-Jan-22 10:49 38.800679 -104.700469 72 6195ft 0kts
04-Jan-22 10:50 38.800679 -104.700469 72 6195ft 0kts
04-Jan-22 10:51 38.800679 -104.700469 72 6195ft 0kts
04-Jan-22 10:52 38.800679 -104.700468 72 6195ft 0kts
04-Jan-22 10:53 38.801164 -104.697219 359 6195ft 13kts
04-Jan-22 10:54 38.802716 -104.694195 89 6195ft 16kts
04-Jan-22 10:55 38.803104 -104.687785 358 6195ft 13kts
04-Jan-22 10:56 38.808335 -104.687792 359 6195ft 26kts
04-Jan-22 10:57 38.815420 -104.687793 1 6195ft 18kts
04-Jan-22 10:58 38.815112 -104.685732 181 6195ft 32kts
04-Jan-22 10:59 38.775325 -104.685534 181 6711ft 215kts
04-Jan-22 11:00 38.709795 -104.684407 184 9158ft 257kts
04-Jan-22 11:01 38.631244 -104.684562 183 11454ft 294kts
04-Jan-22 11:02 38.544804 -104.673054 187 13897ft 321kts
04-Jan-22 11:03 38.489477 -104.725859 267 16370ft 266kts
04-Jan-22 11:04 38.476943 -104.830720 265 17355ft 330kts
04-Jan-22 11:05 38.460776 -104.949586 265 19646ft 344kts
04-Jan-22 11:06 38.443052 -105.071429 265 21800ft 355kts
04-Jan-22 11:07 38.424718 -105.196854 266 23651ft 363kts
04-Jan-22 11:08 38.406185 -105.324861 265 25269ft 372kts
04-Jan-22 11:09 38.386781 -105.455210 265 26928ft 375kts
04-Jan-22 11:10 38.366930 -105.586898 265 28214ft 381kts
04-Jan-22 11:11 38.347001 -105.717875 266 30061ft 372kts
04-Jan-22 11:12 38.327334 -105.846153 266 31650ft 367kts
04-Jan-22 11:13 38.307832 -105.972441 265 33174ft 361kts
04-Jan-22 11:14 38.288348 -106.097634 265 34099ft 363kts
04-Jan-22 11:15 38.268363 -106.225048 265 34115ft 367kts
04-Jan-22 11:16 38.248264 -106.352303 265 34129ft 367kts
04-Jan-22 11:17 38.228133 -106.478818 265 34141ft 367kts
04-Jan-22 11:18 38.207663 -106.606525 265 34153ft 366kts
04-Jan-22 11:19 38.187204 -106.733232 264 34164ft 365kts
04-Jan-22 11:20 38.166601 -106.859935 264 34171ft 365kts
04-Jan-22 11:21 38.145885 -106.986409 264 34192ft 366kts
04-Jan-22 11:22 38.124986 -107.113120 264 34207ft 366kts
04-Jan-22 11:23 38.103939 -107.239825 264 34209ft 366kts
04-Jan-22 11:24 38.082705 -107.366777 264 34210ft 367kts
04-Jan-22 11:25 38.061316 -107.493692 264 34214ft 369kts
04-Jan-22 11:26 38.039727 -107.620963 263 34216ft 369kts
04-Jan-22 11:27 38.018057 -107.747824 263 34218ft 369kts
04-Jan-22 11:28 37.996092 -107.875511 263 34219ft 370kts
04-Jan-22 11:29 37.974089 -108.002592 263 34219ft 370kts
04-Jan-22 11:30 37.951860 -108.130062 263 34220ft 370kts
04-Jan-22 11:31 37.929532 -108.257308 263 34227ft 370kts
04-Jan-22 11:32 37.907197 -108.383711 263 34232ft 371kts
04-Jan-22 11:33 37.884387 -108.511915 263 34238ft 371kts
04-Jan-22 11:34 37.861810 -108.639990 263 34225ft 373kts
04-Jan-22 11:35 37.838516 -108.768245 263 34261ft 374kts
04-Jan-22 11:36 37.815074 -108.896578 263 34276ft 374kts
04-Jan-22 11:37 37.789931 -109.024489 261 34288ft 377kts
04-Jan-22 11:38 37.762983 -109.152649 261 34303ft 377kts
04-Jan-22 11:39 37.736038 -109.280970 261 34314ft 378kts
04-Jan-22 11:40 37.709499 -109.409416 262 34323ft 378kts
04-Jan-22 11:41 37.682997 -109.537474 261 34327ft 377kts
04-Jan-22 11:42 37.656152 -109.665303 261 34326ft 377kts
04-Jan-22 11:43 37.629140 -109.792805 261 34322ft 378kts
04-Jan-22 11:44 37.601720 -109.921492 261 34315ft 378kts
04-Jan-22 11:45 37.574251 -110.049561 261 34305ft 379kts
04-Jan-22 11:46 37.546647 -110.177565 261 34301ft 379kts
04-Jan-22 11:47 37.518884 -110.305603 261 34297ft 380kts
04-Jan-22 11:48 37.490819 -110.434279 261 34296ft 381kts
04-Jan-22 11:49 37.462629 -110.562785 261 34294ft 381kts
04-Jan-22 11:50 37.434265 -110.691347 260 34295ft 382kts
04-Jan-22 11:51 37.405722 -110.820004 260 34283ft 383kts
04-Jan-22 11:52 37.376907 -110.949139 260 34287ft 383kts
04-Jan-22 11:53 37.348051 -111.077772 260 34294ft 384kts
04-Jan-22 11:54 37.318946 -111.206818 260 34294ft 383kts
04-Jan-22 11:55 37.289750 -111.335460 260 34296ft 383kts
04-Jan-22 11:56 37.260690 -111.464371 260 34298ft 384kts
04-Jan-22 11:57 37.230878 -111.593529 260 34303ft 384kts
04-Jan-22 11:58 37.201105 -111.722004 260 34304ft 384kts
04-Jan-22 11:59 37.167259 -111.850156 257 34305ft 387kts
04-Jan-22 12:00 37.132464 -111.977322 257 34310ft 387kts
04-Jan-22 12:01 37.097574 -112.105270 257 34319ft 389kts
04-Jan-22 12:02 37.063324 -112.233698 257 34328ft 388kts
04-Jan-22 12:03 37.028036 -112.361973 257 34341ft 389kts
04-Jan-22 12:04 36.992719 -112.489855 257 34349ft 390kts
04-Jan-22 12:05 36.957477 -112.618321 256 34349ft 390kts
04-Jan-22 12:06 36.921746 -112.746250 256 34345ft 390kts
04-Jan-22 12:07 36.885623 -112.875179 256 32853ft 395kts
04-Jan-22 12:08 36.848808 -113.005849 255 31052ft 402kts
04-Jan-22 12:09 36.811809 -113.138415 255 29255ft 409kts
04-Jan-22 12:10 36.773678 -113.272731 254 27454ft 407kts
04-Jan-22 12:11 36.736066 -113.404229 254 25649ft 397kts
04-Jan-22 12:12 36.699399 -113.532494 254 23654ft 388kts
04-Jan-22 12:13 36.663995 -113.657744 255 21656ft 380kts
04-Jan-22 12:14 36.628441 -113.780942 255 19710ft 375kts
04-Jan-22 12:15 36.593640 -113.898609 251 17900ft 353kts
04-Jan-22 12:16 36.539276 -113.999136 238 16099ft 346kts
04-Jan-22 12:17 36.481041 -114.092309 236 14301ft 338kts
04-Jan-22 12:18 36.424111 -114.183492 234 12502ft 331kts
04-Jan-22 12:19 36.367985 -114.272791 232 10863ft 321kts
04-Jan-22 12:20 36.315661 -114.354699 231 10415ft 287kts
04-Jan-22 12:21 36.266701 -114.431152 231 10063ft 285kts
04-Jan-22 12:22 36.217082 -114.507646 230 9662ft 283kts
04-Jan-22 12:23 36.167761 -114.583154 230 9078ft 274kts
04-Jan-22 12:24 36.122426 -114.652507 230 8463ft 247kts
04-Jan-22 12:25 36.081007 -114.715659 232 8110ft 234kts
04-Jan-22 12:26 36.073394 -114.793430 273 7209ft 224kts
04-Jan-22 12:27 36.073971 -114.866869 268 6212ft 207kts
04-Jan-22 12:28 36.073835 -114.937320 269 5127ft 203kts
04-Jan-22 12:29 36.073567 -115.003750 270 4018ft 186kts
04-Jan-22 12:30 36.073730 -115.064149 269 3196ft 159kts
04-Jan-22 12:31 36.073666 -115.118214 269 2306ft 157kts
04-Jan-22 12:32 36.074620 -115.150308 299 2189ft 25kts
04-Jan-22 12:33 36.075369 -115.151349 327 2189ft 5kts
04-Jan-22 12:35 36.078780 -115.152307 88 2189ft 17kts
04-Jan-22 12:36 36.080077 -115.147898 5 2189ft 10kts
04-Jan-22 12:37 36.080266 -115.147290 57 2189ft 0kts
04-Jan-22 12:38 36.080266 -115.147290 57 2189ft 0kts
04-Jan-22 12:39 36.080266 -115.147290 57 2189ft 0kts
04-Jan-22 12:40 36.080266 -115.147290 57 2189ft 0kts
04-Jan-22 12:41 36.080266 -115.147290 57 2189ft 0kts
04-Jan-22 12:42 36.080266 -115.147290 57 2189ft 0kts
04-Jan-22 12:43 36.080266 -115.147290 57 2189ft 0kts
04-Jan-22 12:44 36.080266 -115.147290 57 2189ft 0kts
04-Jan-22 12:45 36.080266 -115.147290 57 2189ft 0kts
04-Jan-22 12:46 36.080266 -115.147290 57 2189ft 0kts
04-Jan-22 12:47 36.080266 -115.147290 57 2189ft 0kts

Navigation Log

Ident Type
Flight plan parsing failed, navigation log unavailable